Time;durP1;ratioP1;P1;durP2;ratioP2;P2;SDS_P1;SDS_P2;PMS_P1;PMS_P2;Temp;Humidity;BMP_temperature;BMP_pressure;BME280_temperature;BME280_humidity;BME280_pressure;Samples;Min_cycle;Max_cycle;Signal;HPM_P1;HPM_P2
2022/11/14 00:00:29;;;;;;;14.23;10.87;;;;;;;8.38;53.78;99932.69;10403152;28;20240;-73
2022/11/14 00:05:31;;;;;;;14.73;10.87;;;;;;;9.05;52.52;99916.47;10402292;28;20702;-70
2022/11/14 00:10:33;;;;;;;12.67;9.47;;;;;;;9.07;52.41;99916.31;10413769;28;20249;-70
2022/11/14 00:15:34;;;;;;;13.27;11.13;;;;;;;10.30;50.25;99907.66;10412055;28;20224;-70
2022/11/14 00:20:36;;;;;;;13.60;10.63;;;;;;;8.55;52.74;99926.34;10402344;28;20240;-73
2022/11/14 00:25:38;;;;;;;13.23;10.10;;;;;;;8.82;53.01;99925.16;10398016;28;20240;-70
2022/11/14 00:30:39;;;;;;;11.17;9.43;;;;;;;9.61;51.21;99910.25;10400034;28;20236;-70
2022/11/14 00:35:49;;;;;;;18.43;10.70;;;;;;;9.57;51.23;99915.13;10409161;28;20228;-72
2022/11/14 00:40:51;;;;;;;11.47;10.10;;;;;;;10.03;50.11;99917.88;10409265;28;20611;-71
2022/11/14 00:45:53;;;;;;;12.37;10.03;;;;;;;9.69;51.12;99920.91;10409288;28;20321;-74
2022/11/14 00:50:54;;;;;;;11.87;9.60;;;;;;;9.37;52.04;99930.72;10408763;28;20298;-72
2022/11/14 00:55:56;;;;;;;12.17;10.10;;;;;;;9.27;51.05;99924.75;10406773;28;20274;-72
2022/11/14 01:00:58;;;;;;;13.07;11.27;;;;;;;9.39;51.49;99947.41;10398969;28;20290;-74
2022/11/14 01:06:07;;;;;;;11.33;9.33;;;;;;;9.69;51.25;99928.91;10416566;28;20224;-72
2022/11/14 01:11:11;;;;;;;13.73;9.97;;;;;;;8.54;53.32;99951.38;10407853;28;20232;-70
2022/11/14 01:16:13;;;;;;;13.47;11.23;;;;;;;9.00;52.57;99929.50;10404258;28;20237;-73
2022/11/14 01:21:15;;;;;;;13.17;10.83;;;;;;;10.37;50.19;99913.13;10412463;28;20225;-72
2022/11/14 01:26:17;;;;;;;13.43;9.63;;;;;;;8.46;53.41;99928.19;10416489;28;20264;-71
2022/11/14 01:31:22;;;;;;;12.13;8.87;;;;;;;9.46;53.02;99886.09;10411145;28;20229;-71
2022/11/14 01:36:23;;;;;;;12.53;9.50;;;;;;;7.67;54.00;99908.25;10416789;28;20248;-69
2022/11/14 01:41:25;;;;;;;12.10;9.33;;;;;;;8.39;55.03;99855.19;10421906;28;20247;-70
2022/11/14 01:46:37;;;;;;;13.40;10.10;;;;;;;9.74;52.20;99816.97;10409083;28;20239;-74
2022/11/14 01:51:45;;;;;;;11.13;9.53;;;;;;;10.03;50.43;99828.81;10416388;28;20722;-70
2022/11/14 01:56:56;;;;;;;11.17;9.17;;;;;;;10.65;49.61;99847.28;10404961;28;20239;-71
2022/11/14 02:02:02;;;;;;;10.70;9.07;;;;;;;9.40;51.47;99850.25;10403946;28;20286;-71
2022/11/14 02:07:05;;;;;;;10.73;9.10;;;;;;;7.98;53.53;99855.19;10403869;28;20240;-70
2022/11/14 02:12:11;;;;;;;11.00;9.50;;;;;;;10.05;50.05;99832.97;10407309;28;20235;-72
2022/11/14 02:17:14;;;;;;;11.90;9.63;;;;;;;9.05;51.81;99833.72;10407637;28;20238;-72
2022/11/14 02:22:29;;;;;;;11.40;9.73;;;;;;;9.54;51.79;99849.50;10406048;28;20781;-73
2022/11/14 02:27:32;;;;;;;11.30;8.70;;;;;;;9.41;50.57;99843.88;10416388;28;20286;-69
2022/11/14 02:32:34;;;;;;;13.53;9.53;;;;;;;10.03;50.41;99813.59;10413406;28;20229;-73
2022/11/14 02:37:56;;;;;;;11.80;9.47;;;;;;;10.37;49.51;99814.13;10376432;28;21104;-75
2022/11/14 02:42:57;;;;;;;14.80;10.03;;;;;;;9.55;50.94;99837.81;10414046;28;20232;-70
2022/11/14 02:47:59;;;;;;;13.73;9.53;;;;;;;10.25;49.22;99816.44;10402146;28;20718;-70
2022/11/14 02:53:01;;;;;;;12.07;9.67;;;;;;;11.10;48.20;99809.00;10404593;28;20243;-72
2022/11/14 02:58:02;;;;;;;12.50;9.83;;;;;;;9.68;50.20;99823.84;10402375;28;20595;-70
2022/11/14 03:03:04;;;;;;;11.77;9.70;;;;;;;8.41;53.57;99831.03;10401399;28;20236;-71
2022/11/14 03:08:06;;;;;;;11.70;9.67;;;;;;;7.25;55.93;99790.13;10399901;28;20265;-73
2022/11/14 03:13:07;;;;;;;11.67;8.90;;;;;;;9.43;52.07;99767.09;10402991;28;20231;-71
2022/11/14 03:18:09;;;;;;;11.80;9.43;;;;;;;8.81;52.59;99800.75;10403898;28;20240;-70
2022/11/14 03:23:10;;;;;;;12.23;9.13;;;;;;;8.30;53.18;99802.88;10409659;28;20260;-74
2022/11/14 03:28:12;;;;;;;10.83;9.47;;;;;;;9.11;52.10;99798.34;10402346;28;20244;-73
2022/11/14 03:33:13;;;;;;;11.90;8.37;;;;;;;8.88;52.17;99786.75;10410743;28;20232;-70
2022/11/14 03:38:16;;;;;;;12.10;8.67;;;;;;;8.85;52.42;99770.03;10404299;28;20788;-72
2022/11/14 03:43:19;;;;;;;11.77;8.93;;;;;;;8.03;54.45;99761.44;10402962;28;20236;-70
2022/11/14 03:48:21;;;;;;;11.70;8.90;;;;;;;7.39;56.31;99745.25;10409565;28;20298;-70
2022/11/14 03:53:23;;;;;;;10.30;8.60;;;;;;;8.97;52.10;99765.19;10412697;28;20633;-71
2022/11/14 03:58:24;;;;;;;11.20;8.83;;;;;;;9.78;50.69;99746.13;10423129;28;20240;-70
2022/11/14 04:03:26;;;;;;;11.50;8.87;;;;;;;9.22;51.35;99768.56;10417579;28;20240;-71
2022/11/14 04:08:27;;;;;;;12.00;8.60;;;;;;;8.82;52.53;99782.91;10408160;28;20242;-70
2022/11/14 04:13:30;;;;;;;11.03;8.00;;;;;;;9.52;51.05;99768.69;10409545;28;20328;-73
2022/11/14 04:18:31;;;;;;;12.83;9.30;;;;;;;9.76;50.12;99748.16;10407654;28;20470;-71
2022/11/14 04:23:33;;;;;;;11.20;8.70;;;;;;;8.95;51.55;99764.53;10420806;28;20251;-71
2022/11/14 04:28:35;;;;;;;12.43;9.03;;;;;;;10.21;49.74;99729.53;10408988;28;20297;-70
2022/11/14 04:33:36;;;;;;;11.00;9.33;;;;;;;10.22;49.01;99731.22;10415400;28;20536;-72
2022/11/14 04:38:38;;;;;;;11.53;8.13;;;;;;;9.92;49.79;99747.19;10417444;28;20232;-73
2022/11/14 04:43:40;;;;;;;12.33;9.07;;;;;;;9.50;50.06;99752.03;10408497;28;20229;-71
2022/11/14 04:48:41;;;;;;;13.00;9.07;;;;;;;9.86;49.90;99777.34;10401800;28;20278;-72
2022/11/14 04:54:07;;;;;;;12.90;8.83;;;;;;;10.09;49.01;99758.56;10411049;28;20220;-69
2022/11/14 04:59:33;;;;;;;11.73;8.63;;;;;;;9.99;49.24;99782.06;10401346;28;20698;-73
2022/11/14 05:04:59;;;;;;;12.27;8.27;;;;;;;10.29;48.66;99782.94;10398160;28;20228;-71
2022/11/14 05:10:25;;;;;;;10.33;7.90;;;;;;;9.51;50.12;99788.41;10403957;28;20232;-70
2022/11/14 05:15:51;;;;;;;12.30;9.33;;;;;;;9.41;50.39;99782.47;10398877;28;20220;-71
2022/11/14 05:21:16;;;;;;;12.37;9.07;;;;;;;8.69;51.50;99775.47;10403684;28;20221;-71
2022/11/14 05:26:42;;;;;;;11.50;8.40;;;;;;;9.27;50.87;99773.38;10411926;28;20242;-71
2022/11/14 05:32:08;;;;;;;12.47;9.27;;;;;;;9.16;50.46;99769.28;10408582;28;20318;-71
2022/11/14 05:37:34;;;;;;;11.23;9.13;;;;;;;8.33;51.10;99751.88;10409203;28;20259;-71
2022/11/14 05:43:00;;;;;;;11.60;8.63;;;;;;;8.82;51.60;99743.69;10410060;28;20241;-71
2022/11/14 05:48:26;;;;;;;14.27;9.93;;;;;;;8.28;52.34;99720.38;10405920;28;20285;-70
2022/11/14 05:53:52;;;;;;;15.63;10.60;;;;;;;9.11;51.16;99704.91;10398471;28;20242;-70
2022/11/14 05:59:18;;;;;;;14.73;9.90;;;;;;;9.30;50.62;99694.72;10400871;28;20728;-72
2022/11/14 06:04:43;;;;;;;17.97;11.50;;;;;;;9.27;51.54;99676.41;10407012;28;20282;-70
2022/11/14 06:10:09;;;;;;;18.03;12.53;;;;;;;9.10;51.52;99668.53;10406479;28;20235;-71
2022/11/14 06:15:35;;;;;;;26.10;14.20;;;;;;;8.35;52.55;99671.72;10404418;28;20760;-72
2022/11/14 06:21:01;;;;;;;21.70;13.47;;;;;;;8.60;52.37;99656.44;10404051;28;20228;-70
2022/11/14 06:26:29;;;;;;;22.27;12.73;;;;;;;8.52;52.22;99661.81;10418043;28;20260;-71
2022/11/14 06:31:55;;;;;;;24.50;14.93;;;;;;;8.79;52.35;99650.69;10408668;28;20224;-70
2022/11/14 06:37:21;;;;;;;23.10;14.67;;;;;;;7.77;53.43;99652.38;10409091;28;20739;-71
2022/11/14 06:42:47;;;;;;;20.63;13.50;;;;;;;8.14;52.71;99664.31;10367231;28;20627;-71
2022/11/14 06:48:13;;;;;;;24.83;14.37;;;;;;;8.61;51.30;99647.44;10360911;28;20241;-70
2022/11/14 06:53:40;;;;;;;20.53;13.70;;;;;;;8.43;52.06;99666.34;10361633;28;20220;-70
2022/11/14 06:59:06;;;;;;;19.27;13.70;;;;;;;6.75;55.72;99604.75;10356284;28;20237;-72
2022/11/14 07:04:32;;;;;;;21.23;13.13;;;;;;;7.76;53.47;99624.88;10375146;28;20238;-71
2022/11/14 07:09:58;;;;;;;20.43;14.17;;;;;;;6.93;55.17;99613.44;10395064;28;20255;-70
2022/11/14 07:15:24;;;;;;;18.97;14.50;;;;;;;8.05;53.09;99635.00;10402744;28;20258;-70
2022/11/14 07:20:56;;;;;;;17.17;12.53;;;;;;;8.52;52.51;99622.63;10407007;28;20717;-72
2022/11/14 07:26:22;;;;;;;19.33;13.57;;;;;;;7.57;53.71;99662.53;10420586;28;20228;-70
2022/11/14 07:31:48;;;;;;;19.07;13.57;;;;;;;8.37;52.09;99661.72;10408704;28;20220;-70
2022/11/14 07:37:14;;;;;;;17.13;13.97;;;;;;;8.19;52.72;99656.63;10410767;28;20315;-70
2022/11/14 07:42:40;;;;;;;18.10;14.33;;;;;;;6.83;54.22;99665.13;10419089;28;20303;-70
2022/11/14 07:48:05;;;;;;;17.90;14.87;;;;;;;7.95;53.02;99666.34;10410123;28;20239;-71
2022/11/14 07:53:31;;;;;;;16.37;14.30;;;;;;;6.98;54.35;99669.66;10409937;28;20220;-70
2022/11/14 07:58:57;;;;;;;17.03;13.43;;;;;;;8.34;52.37;99654.91;10400506;28;20256;-72
2022/11/14 19:12:24;;;;;;;16.90;12.60;;;;;;;8.06;61.97;99570.03;10447591;28;20716;-69
2022/11/14 19:17:26;;;;;;;17.13;13.70;;;;;;;7.61;63.04;99571.50;10430844;28;20240;-70
2022/11/14 19:22:27;;;;;;;15.60;12.13;;;;;;;7.92;62.97;99560.13;10409784;28;20826;-70
2022/11/14 19:27:29;;;;;;;13.17;10.67;;;;;;;8.74;60.94;99537.47;10410173;28;20289;-69
2022/11/14 19:32:33;;;;;;;12.27;10.60;;;;;;;8.47;61.16;99543.19;10415251;28;20244;-71
2022/11/14 19:37:35;;;;;;;14.23;11.47;;;;;;;8.52;61.51;99555.97;10426675;28;20264;-68
2022/11/14 19:42:37;;;;;;;16.80;12.30;;;;;;;9.06;61.01;99570.28;10402141;28;20263;-69
2022/11/14 19:47:39;;;;;;;14.00;11.07;;;;;;;9.55;60.14;99564.47;10405996;28;20297;-72
2022/11/14 19:52:40;;;;;;;13.40;9.43;;;;;;;9.48;59.76;99577.72;10418760;28;20248;-68
2022/11/14 19:57:42;;;;;;;11.00;9.83;;;;;;;9.87;59.00;99587.41;10418999;28;20255;-69
2022/11/14 20:02:45;;;;;;;12.40;9.27;;;;;;;9.47;59.83;99588.63;10430465;28;20233;-70
2022/11/14 20:07:47;;;;;;;12.70;9.63;;;;;;;10.41;57.74;99614.81;10418796;28;20240;-71
2022/11/14 20:12:48;;;;;;;15.00;12.40;;;;;;;9.18;60.22;99601.72;10414350;28;20229;-68
2022/11/14 20:17:50;;;;;;;13.57;10.67;;;;;;;10.12;58.39;99608.47;10415214;28;20285;-72
2022/11/14 20:22:52;;;;;;;11.57;9.37;;;;;;;9.54;59.77;99594.91;10435675;28;20309;-68
2022/11/14 20:27:53;;;;;;;12.20;9.13;;;;;;;9.70;59.31;99591.22;10451689;28;20244;-69
2022/11/14 20:32:55;;;;;;;10.73;7.33;;;;;;;10.06;58.73;99603.88;10455551;28;20640;-70
2022/11/14 20:37:56;;;;;;;11.17;7.23;;;;;;;10.20;57.65;99607.56;10450547;28;20627;-69
2022/11/14 20:43:06;;;;;;;8.50;6.77;;;;;;;9.75;58.17;99608.38;10452182;28;20236;-70
2022/11/14 20:48:07;;;;;;;9.50;7.80;;;;;;;10.35;57.31;99619.06;10454890;28;20247;-70
2022/11/14 20:53:09;;;;;;;11.37;8.13;;;;;;;10.43;57.30;99624.31;10438989;28;20895;-69
2022/11/14 20:58:11;;;;;;;9.17;7.43;;;;;;;10.65;57.12;99622.50;10450982;28;20242;-69
2022/11/14 21:03:13;;;;;;;10.43;7.20;;;;;;;10.92;56.11;99635.34;10467626;28;20318;-69
2022/11/14 21:08:16;;;;;;;11.30;6.63;;;;;;;10.68;57.35;99635.50;10458111;28;20235;-69
2022/11/14 21:18:40;;;;;;;9.33;6.63;;;;;;;9.93;57.96;99629.41;10452569;28;20243;-73
2022/11/14 21:23:48;;;;;;;9.70;6.43;;;;;;;10.67;56.57;99644.53;10454502;28;20236;-74
2022/11/14 21:28:55;;;;;;;9.63;6.87;;;;;;;9.94;58.15;99620.38;10452432;28;20674;-74
2022/11/14 21:33:58;;;;;;;8.33;7.07;;;;;;;9.80;58.21;99625.69;10446634;28;20589;-71
2022/11/14 21:39:00;;;;;;;11.00;7.37;;;;;;;11.52;54.83;99647.44;10452247;28;20628;-73
2022/11/14 21:44:02;;;;;;;9.97;7.20;;;;;;;11.17;55.27;99643.84;10431345;28;20231;-72
2022/11/14 21:49:03;;;;;;;9.73;6.97;;;;;;;9.61;57.48;99651.91;10415086;28;20270;-73
2022/11/14 21:54:05;;;;;;;9.03;7.53;;;;;;;11.55;54.21;99673.84;10418484;28;20281;-72
2022/11/14 21:59:14;;;;;;;10.73;7.77;;;;;;;11.00;54.91;99659.34;10420464;28;20250;-71
2022/11/14 22:04:16;;;;;;;12.97;8.50;;;;;;;10.57;56.15;99656.56;10410927;28;20238;-74
2022/11/14 22:09:18;;;;;;;10.03;7.80;;;;;;;10.27;56.78;99653.94;10405383;28;20286;-73
2022/11/14 22:14:20;;;;;;;11.20;8.47;;;;;;;11.03;54.91;99659.78;10443820;28;20234;-70
2022/11/14 22:19:22;;;;;;;12.00;7.70;;;;;;;10.31;56.26;99649.88;10458233;28;20258;-71
2022/11/14 22:24:24;;;;;;;9.43;7.87;;;;;;;11.05;54.79;99663.13;10448386;28;20607;-72
2022/11/14 22:29:25;;;;;;;11.00;8.23;;;;;;;10.38;55.30;99666.00;10447877;28;20240;-71
2022/11/14 22:34:27;;;;;;;10.87;8.37;;;;;;;10.69;56.11;99663.09;10453977;28;20238;-72
2022/11/14 22:39:28;;;;;;;13.50;9.57;;;;;;;11.23;54.39;99670.69;10455129;28;21533;-71
2022/11/14 22:44:30;;;;;;;20.30;14.37;;;;;;;10.52;56.33;99657.13;10451124;28;20536;-72
2022/11/14 22:49:32;;;;;;;19.70;14.03;;;;;;;10.48;55.91;99658.53;10426399;28;20407;-74
2022/11/14 22:54:33;;;;;;;15.43;11.97;;;;;;;10.61;56.04;99665.88;10428076;28;20228;-71
2022/11/14 22:59:35;;;;;;;11.67;9.33;;;;;;;11.38;54.40;99675.16;10432438;28;20231;-75
2022/11/14 23:04:36;;;;;;;12.13;9.13;;;;;;;10.96;54.89;99669.59;10431201;28;20228;-73
2022/11/14 23:09:38;;;;;;;14.33;9.87;;;;;;;9.72;57.08;99672.88;10436295;28;20239;-70
2022/11/14 23:14:40;;;;;;;12.20;9.13;;;;;;;11.05;54.21;99673.84;10418100;28;20251;-72
2022/11/14 23:19:41;;;;;;;11.83;9.37;;;;;;;11.66;52.96;99690.47;10443502;28;20227;-73
2022/11/14 23:24:43;;;;;;;11.77;8.73;;;;;;;10.85;54.68;99676.28;10461010;28;20237;-71
2022/11/14 23:29:45;;;;;;;11.40;9.47;;;;;;;9.62;56.80;99685.66;10425837;28;20740;-70
2022/11/14 23:34:47;;;;;;;13.83;11.17;;;;;;;9.68;58.19;99673.41;10424013;28;20297;-75
2022/11/14 23:39:48;;;;;;;15.30;10.70;;;;;;;10.07;56.62;99634.94;10416832;28;20242;-70
2022/11/14 23:44:50;;;;;;;18.87;11.27;;;;;;;10.39;55.96;99647.09;10417542;28;20264;-73
2022/11/14 23:49:52;;;;;;;16.60;11.53;;;;;;;9.24;59.85;99653.56;10417053;28;20770;-70
2022/11/14 23:54:53;;;;;;;12.13;10.30;;;;;;;9.24;60.00;99621.53;10415362;28;20228;-72
2022/11/14 23:59:55;;;;;;;12.70;10.40;;;;;;;8.95;60.65;99611.59;10415638;28;20237;-74
